Time;durP1;ratioP1;P1;durP2;ratioP2;P2;SDS_P1;SDS_P2;PMS_P1;PMS_P2;Temp;Humidity;BMP_temperature;BMP_pressure;BME280_temperature;BME280_humidity;BME280_pressure;Samples;Min_cycle;Max_cycle;Signal;HPM_P1;HPM_P2
2022/11/03 00:01:02;;;;;;;5.80;2.27;;;5.30;99.90;;;;;;5012038;28;20493;-66
2022/11/03 00:03:27;;;;;;;4.30;2.20;;;5.40;99.90;;;;;;5011686;28;20462;-66
2022/11/03 00:06:05;;;;;;;5.77;2.63;;;5.40;99.90;;;;;;5012286;28;20418;-66
2022/11/03 00:08:41;;;;;;;4.47;1.47;;;5.40;99.90;;;;;;5000920;28;20167;-66
2022/11/03 00:11:10;;;;;;;3.30;1.70;;;5.40;99.90;;;;;;5011001;28;20425;-66
2022/11/03 00:13:37;;;;;;;2.80;1.57;;;5.40;99.90;;;;;;5011246;28;20772;-66
2022/11/03 00:16:03;;;;;;;2.80;1.50;;;5.40;99.90;;;;;;5011708;28;20414;-66
2022/11/03 00:18:29;;;;;;;6.37;1.80;;;5.30;99.90;;;;;;5012152;28;20556;-66
2022/11/03 00:20:59;;;;;;;4.00;1.90;;;5.30;99.90;;;;;;5003217;28;20545;-66
2022/11/03 00:23:30;;;;;;;3.10;1.50;;;5.30;99.90;;;;;;5011708;28;20190;-66
2022/11/03 00:26:22;;;;;;;3.00;1.20;;;5.30;99.90;;;;;;5012091;28;20408;-66
2022/11/03 00:28:50;;;;;;;5.30;1.60;;;5.30;99.90;;;;;;5008684;28;20421;-66
2022/11/03 00:31:17;;;;;;;7.20;2.07;;;5.30;99.90;;;;;;5010861;28;20412;-66
2022/11/03 00:33:43;;;;;;;6.57;1.70;;;5.20;99.90;;;;;;5011317;28;20445;-66
2022/11/03 00:36:14;;;;;;;6.23;1.43;;;5.10;99.90;;;;;;5011740;28;20446;-66
2022/11/03 00:38:41;;;;;;;3.27;1.53;;;5.00;99.90;;;;;;5011605;28;20509;-66
2022/11/03 00:41:07;;;;;;;6.27;2.63;;;5.00;99.90;;;;;;5011817;28;20426;-66
2022/11/03 00:43:33;;;;;;;3.50;2.03;;;5.00;99.90;;;;;;5010754;28;20429;-66
2022/11/03 00:46:00;;;;;;;4.03;1.93;;;4.90;99.90;;;;;;5011721;28;20418;-66
2022/11/03 00:48:29;;;;;;;4.63;1.80;;;4.80;99.90;;;;;;5011532;28;20430;-66
2022/11/03 00:51:22;;;;;;;5.60;2.10;;;4.80;99.90;;;;;;5011719;28;20437;-66
2022/11/03 00:53:50;;;;;;;2.20;1.43;;;4.80;99.90;;;;;;5011337;28;20438;-66
2022/11/03 00:56:24;;;;;;;3.23;1.67;;;4.80;99.90;;;;;;5011388;28;20949;-65
2022/11/03 00:58:51;;;;;;;4.37;2.33;;;4.80;99.90;;;;;;5004528;28;20509;-66
2022/11/03 01:01:21;;;;;;;8.03;2.10;;;4.80;99.90;;;;;;5010392;28;20422;-66
2022/11/03 01:06:50;;;;;;;3.97;2.00;;;4.60;99.90;;;;;;5011925;28;20413;-66
2022/11/03 01:09:16;;;;;;;5.33;2.00;;;4.60;99.90;;;;;;5001982;28;20410;-66
2022/11/03 01:12:04;;;;;;;3.27;1.83;;;4.60;99.90;;;;;;5010149;28;20422;-65
2022/11/03 01:14:43;;;;;;;7.33;2.13;;;4.60;99.90;;;;;;5011765;28;20808;-64
2022/11/03 01:17:14;;;;;;;3.70;1.80;;;4.60;99.90;;;;;;5011234;28;20414;-64
2022/11/03 01:19:39;;;;;;;2.50;1.67;;;4.60;99.90;;;;;;5007522;28;20482;-64
2022/11/03 01:22:06;;;;;;;6.23;2.00;;;4.60;99.90;;;;;;5006100;28;20415;-64
2022/11/03 01:24:33;;;;;;;7.83;2.00;;;4.60;99.90;;;;;;5011657;28;20183;-64
2022/11/03 01:26:58;;;;;;;9.13;1.97;;;4.60;99.90;;;;;;5010592;28;20501;-64
2022/11/03 01:29:24;;;;;;;5.67;1.83;;;4.60;99.90;;;;;;5014473;28;20592;-64
2022/11/03 01:31:49;;;;;;;5.30;2.00;;;4.60;99.90;;;;;;5013110;28;20647;-64
2022/11/03 01:34:17;;;;;;;16.67;2.50;;;4.60;99.90;;;;;;5015001;28;20187;-64
2022/11/03 01:36:44;;;;;;;2.23;1.27;;;4.50;99.90;;;;;;5015011;28;20187;-64
2022/11/03 01:39:15;;;;;;;3.20;1.50;;;4.50;99.90;;;;;;5015082;28;20422;-64
2022/11/03 01:41:42;;;;;;;3.20;1.20;;;4.50;99.90;;;;;;5013396;28;20432;-64
2022/11/03 01:44:07;;;;;;;6.00;1.60;;;4.50;99.90;;;;;;5015279;28;20433;-64
2022/11/03 01:46:38;;;;;;;3.40;1.53;;;4.50;99.90;;;;;;5013149;28;20410;-64
2022/11/03 01:49:10;;;;;;;2.40;1.60;;;4.50;99.90;;;;;;5014946;28;20314;-64
2022/11/03 01:51:37;;;;;;;2.60;1.37;;;4.50;99.90;;;;;;5014291;28;20432;-64
2022/11/03 01:54:07;;;;;;;4.43;1.30;;;4.40;99.90;;;;;;5014526;28;20434;-64
2022/11/03 01:56:35;;;;;;;3.43;1.40;;;4.40;99.90;;;;;;5014199;28;20457;-64
2022/11/03 01:59:01;;;;;;;2.80;1.40;;;4.40;99.90;;;;;;5013825;28;20422;-64
2022/11/03 02:01:28;;;;;;;5.07;1.70;;;4.40;99.90;;;;;;5013696;28;20421;-64
2022/11/03 02:04:01;;;;;;;2.23;1.23;;;4.30;99.90;;;;;;5014217;28;20422;-64
2022/11/03 02:06:28;;;;;;;3.27;1.63;;;4.30;99.90;;;;;;5014429;28;21089;-64
2022/11/03 02:09:00;;;;;;;4.60;1.63;;;4.30;99.90;;;;;;5004448;28;20478;-64
2022/11/03 02:14:14;;;;;;;3.17;1.20;;;4.20;99.90;;;;;;5014303;28;20409;-64
2022/11/03 02:16:44;;;;;;;3.00;1.60;;;4.10;99.90;;;;;;5014237;28;20864;-64
2022/11/03 02:19:24;;;;;;;2.80;1.50;;;4.00;99.90;;;;;;5014013;28;20426;-64
2022/11/03 02:21:57;;;;;;;2.87;1.43;;;4.00;99.90;;;;;;5006675;28;20418;-64
2022/11/03 02:24:49;;;;;;;3.00;1.70;;;4.00;99.90;;;;;;5001696;28;20886;-64
2022/11/03 02:27:14;;;;;;;9.40;2.33;;;4.00;99.90;;;;;;5010439;28;20434;-64
2022/11/03 02:29:40;;;;;;;1.77;0.87;;;4.10;99.90;;;;;;5014173;28;20454;-64
2022/11/03 02:32:21;;;;;;;5.77;1.60;;;4.00;99.90;;;;;;5012472;28;20194;-65
2022/11/03 02:35:18;;;;;;;6.33;2.30;;;4.10;99.90;;;;;;5014107;28;20306;-66
2022/11/03 02:37:48;;;;;;;4.40;1.60;;;4.20;99.90;;;;;;5008287;28;20513;-65
2022/11/03 02:40:18;;;;;;;3.73;1.33;;;4.20;99.90;;;;;;5013394;28;20457;-65
2022/11/03 02:42:49;;;;;;;3.47;1.47;;;4.10;99.90;;;;;;5012649;28;20433;-65
2022/11/03 02:45:19;;;;;;;1.83;1.00;;;4.00;99.90;;;;;;5013655;28;20422;-66
2022/11/03 02:47:46;;;;;;;12.50;1.87;;;3.90;99.90;;;;;;5013526;28;20434;-65
2022/11/03 02:50:12;;;;;;;4.03;1.47;;;4.00;99.90;;;;;;5013480;28;20504;-65
2022/11/03 02:52:47;;;;;;;14.13;2.93;;;3.90;99.90;;;;;;5012804;28;20414;-65
2022/11/03 02:55:33;;;;;;;5.63;1.77;;;4.00;99.90;;;;;;5001436;28;20206;-65
2022/11/03 02:58:29;;;;;;;3.60;1.83;;;4.00;99.90;;;;;;5009983;28;20488;-65
2022/11/03 03:01:13;;;;;;;2.90;1.60;;;4.00;99.90;;;;;;5013451;28;20930;-65
2022/11/03 03:03:50;;;;;;;10.73;2.30;;;4.00;99.90;;;;;;5012938;28;20413;-65
2022/11/03 03:06:38;;;;;;;2.57;1.33;;;4.00;99.90;;;;;;5013339;28;20425;-65
2022/11/03 03:09:08;;;;;;;5.00;2.17;;;4.00;99.90;;;;;;5003300;28;20491;-65
2022/11/03 03:11:36;;;;;;;9.63;1.90;;;4.00;99.90;;;;;;5012854;28;20500;-66
2022/11/03 03:14:16;;;;;;;7.73;1.63;;;4.00;99.90;;;;;;5012413;28;21085;-66
2022/11/03 03:17:00;;;;;;;4.17;1.90;;;3.90;99.90;;;;;;5013468;28;20496;-66
2022/11/03 03:19:45;;;;;;;5.80;2.20;;;3.90;99.90;;;;;;5013215;28;20426;-66
2022/11/03 03:22:25;;;;;;;6.07;2.13;;;4.00;99.90;;;;;;5012604;28;20422;-66
2022/11/03 03:25:13;;;;;;;2.70;1.50;;;3.90;99.90;;;;;;5013183;28;20414;-66
2022/11/03 03:27:44;;;;;;;3.30;1.50;;;3.90;99.90;;;;;;5000612;28;20415;-66
2022/11/03 03:30:11;;;;;;;5.73;1.30;;;3.90;99.90;;;;;;5009742;28;20512;-65
2022/11/03 03:32:40;;;;;;;3.80;2.13;;;3.90;99.90;;;;;;5012419;28;20922;-65
2022/11/03 03:35:09;;;;;;;2.90;1.90;;;3.90;99.90;;;;;;5012679;28;20465;-66
2022/11/03 03:37:38;;;;;;;5.37;2.10;;;3.90;99.90;;;;;;5011462;28;20425;-66
2022/11/03 03:40:09;;;;;;;5.53;1.37;;;3.90;99.90;;;;;;5012701;28;20921;-65
2022/11/03 03:42:37;;;;;;;3.80;1.17;;;3.90;99.90;;;;;;5011393;28;20765;-65
2022/11/03 03:45:05;;;;;;;3.20;1.70;;;3.80;99.90;;;;;;5012782;28;20430;-65
2022/11/03 03:47:32;;;;;;;5.03;2.37;;;3.80;99.90;;;;;;5012667;28;20418;-65
2022/11/03 03:49:59;;;;;;;3.17;1.57;;;3.90;99.90;;;;;;5012102;28;20805;-65
2022/11/03 03:52:25;;;;;;;4.17;1.90;;;3.80;99.90;;;;;;5011578;28;20425;-65
2022/11/03 03:54:51;;;;;;;4.30;1.80;;;3.80;99.90;;;;;;5012041;28;20462;-65
2022/11/03 03:57:21;;;;;;;6.53;2.10;;;3.90;99.90;;;;;;5011767;28;20929;-65
2022/11/03 03:59:47;;;;;;;9.17;1.83;;;3.90;99.90;;;;;;5012651;28;20175;-65
2022/11/03 04:02:12;;;;;;;6.07;1.70;;;3.80;99.90;;;;;;5012003;28;20785;-65
2022/11/03 04:04:38;;;;;;;4.17;2.10;;;3.80;99.90;;;;;;5013010;28;20210;-65
2022/11/03 04:09:48;;;;;;;7.83;2.20;;;3.80;99.90;;;;;;5012457;28;20220;-65
2022/11/03 04:23:13;;;;;;;4.20;1.50;;;3.70;99.90;;;;;;5011604;28;20467;-65
2022/11/03 04:25:39;;;;;;;7.23;2.20;;;3.50;99.90;;;;;;5011919;28;20422;-65
2022/11/03 04:28:11;;;;;;;5.50;2.00;;;3.50;99.90;;;;;;5011287;28;20544;-65
2022/11/03 04:30:36;;;;;;;4.37;1.93;;;3.50;99.90;;;;;;5010819;28;20191;-65
2022/11/03 04:33:11;;;;;;;3.07;2.07;;;3.50;99.90;;;;;;5011330;28;20414;-65
2022/11/03 04:35:36;;;;;;;6.60;2.50;;;3.50;99.90;;;;;;5010224;28;20265;-65
2022/11/03 04:38:28;;;;;;;5.63;1.90;;;3.60;99.90;;;;;;5004381;28;20549;-65
2022/11/03 04:40:58;;;;;;;4.03;2.10;;;3.60;99.90;;;;;;4998936;28;20198;-65
2022/11/03 04:43:35;;;;;;;7.13;2.73;;;3.60;99.90;;;;;;5010442;28;20508;-65
2022/11/03 04:46:01;;;;;;;3.97;1.80;;;3.60;99.90;;;;;;5006898;28;20409;-65
2022/11/03 04:48:28;;;;;;;2.30;1.70;;;3.60;99.90;;;;;;5011827;28;20766;-65
2022/11/03 04:50:58;;;;;;;4.17;1.40;;;3.60;99.90;;;;;;5011820;28;20234;-65
2022/11/03 04:53:29;;;;;;;3.23;1.90;;;3.60;99.90;;;;;;5011119;28;21005;-65
2022/11/03 04:55:55;;;;;;;3.47;1.90;;;3.70;99.90;;;;;;5011910;28;20933;-65
2022/11/03 04:58:21;;;;;;;11.90;3.23;;;3.70;99.90;;;;;;5010949;28;20414;-65
2022/11/03 05:00:50;;;;;;;5.90;2.77;;;3.60;99.90;;;;;;5011785;28;20715;-65
2022/11/03 05:03:26;;;;;;;2.50;1.73;;;3.60;99.90;;;;;;5014044;28;20425;-65
2022/11/03 05:05:51;;;;;;;4.77;2.00;;;3.60;99.90;;;;;;5015409;28;20928;-65
2022/11/03 05:08:18;;;;;;;8.60;2.40;;;3.60;99.90;;;;;;5010548;28;20409;-65
2022/11/03 05:10:45;;;;;;;7.43;1.90;;;3.60;99.90;;;;;;5010667;28;20206;-65
2022/11/03 05:13:19;;;;;;;4.50;1.90;;;3.60;99.90;;;;;;5014144;28;20501;-65
2022/11/03 05:15:46;;;;;;;11.50;3.23;;;3.60;99.90;;;;;;5013871;28;21168;-65
2022/11/03 05:18:19;;;;;;;3.90;2.20;;;3.60;99.90;;;;;;5015203;28;20414;-65
2022/11/03 05:20:58;;;;;;;8.83;2.07;;;3.60;99.90;;;;;;5006582;28;20438;-65
2022/11/03 05:23:26;;;;;;;3.97;2.50;;;3.60;99.90;;;;;;5014756;28;20422;-65
2022/11/03 05:25:53;;;;;;;8.60;3.93;;;3.60;99.90;;;;;;5015285;28;20418;-65
2022/11/03 05:28:34;;;;;;;8.73;2.70;;;3.50;99.90;;;;;;5014359;28;20521;-65
2022/11/03 05:31:00;;;;;;;5.83;2.83;;;3.50;99.90;;;;;;5003316;28;20536;-65
2022/11/03 05:33:36;;;;;;;4.73;2.53;;;3.40;99.90;;;;;;5014749;28;20418;-65
2022/11/03 05:36:15;;;;;;;8.33;3.97;;;3.40;99.90;;;;;;5015418;28;20420;-65
2022/11/03 05:38:41;;;;;;;5.00;3.03;;;3.40;99.90;;;;;;5014830;28;20428;-65
2022/11/03 05:41:18;;;;;;;4.47;2.43;;;3.40;99.90;;;;;;5015049;28;20932;-65
2022/11/03 05:43:43;;;;;;;5.87;2.77;;;3.40;99.90;;;;;;5013941;28;20427;-66
2022/11/03 05:46:10;;;;;;;15.90;3.40;;;3.40;99.90;;;;;;5014795;28;20418;-65
2022/11/03 05:48:42;;;;;;;7.90;3.30;;;3.40;99.90;;;;;;5014757;28;20183;-65
2022/11/03 05:51:38;;;;;;;5.10;2.77;;;3.50;99.90;;;;;;5014764;28;20464;-65
2022/11/03 05:54:11;;;;;;;7.30;2.07;;;3.40;99.90;;;;;;5013125;28;20496;-65
2022/11/03 05:56:37;;;;;;;5.73;2.57;;;3.40;99.90;;;;;;5014477;28;20890;-65
2022/11/03 05:59:04;;;;;;;16.07;3.83;;;3.40;99.90;;;;;;5001698;28;20477;-65
2022/11/03 06:01:31;;;;;;;9.53;2.90;;;3.40;99.90;;;;;;5000983;28;20179;-65
2022/11/03 06:04:00;;;;;;;25.90;2.70;;;3.40;99.90;;;;;;5014393;28;20796;-65
2022/11/03 06:06:35;;;;;;;5.63;2.63;;;3.40;99.90;;;;;;5014287;28;21039;-66
2022/11/03 06:09:15;;;;;;;9.73;2.00;;;3.50;99.90;;;;;;5005637;28;20417;-65
2022/11/03 06:11:42;;;;;;;7.90;2.70;;;3.50;99.90;;;;;;5014027;28;20483;-65
2022/11/03 06:14:22;;;;;;;5.80;2.60;;;3.50;99.90;;;;;;5013431;28;20449;-65
2022/11/03 06:17:04;;;;;;;5.90;2.37;;;3.40;99.90;;;;;;5014664;28;20406;-65
2022/11/03 06:19:36;;;;;;;7.30;2.60;;;3.40;99.90;;;;;;5014389;28;20510;-65
2022/11/03 06:22:14;;;;;;;8.60;2.57;;;3.40;99.90;;;;;;5000473;28;20431;-65
2022/11/03 06:24:40;;;;;;;9.20;2.63;;;3.40;99.90;;;;;;4994888;28;20427;-65
2022/11/03 06:27:12;;;;;;;6.83;2.10;;;3.40;99.90;;;;;;4994528;28;20493;-65
2022/11/03 06:29:38;;;;;;;6.03;3.00;;;3.50;99.90;;;;;;4994648;28;20443;-65
2022/11/03 06:32:10;;;;;;;3.10;1.80;;;3.50;99.90;;;;;;4992958;28;20908;-65
2022/11/03 06:34:51;;;;;;;4.63;3.10;;;3.50;99.90;;;;;;4994296;28;20172;-66
2022/11/03 06:37:20;;;;;;;5.87;3.13;;;3.50;99.90;;;;;;4994658;28;20411;-65
2022/11/03 06:39:47;;;;;;;5.63;2.30;;;3.40;99.90;;;;;;5013337;28;20909;-66
2022/11/03 06:42:15;;;;;;;4.57;2.50;;;3.50;99.90;;;;;;5013612;28;20804;-66
2022/11/03 06:44:46;;;;;;;8.70;2.67;;;3.50;99.90;;;;;;5013796;28;20426;-66
2022/11/03 06:47:21;;;;;;;10.20;3.53;;;3.60;99.90;;;;;;5014024;28;20488;-66
2022/11/03 06:49:48;;;;;;;11.03;3.90;;;3.70;99.90;;;;;;5013890;28;20457;-65
2022/11/03 06:52:22;;;;;;;10.23;3.23;;;3.70;99.90;;;;;;5013424;28;20504;-66
2022/11/03 06:54:53;;;;;;;11.57;3.17;;;3.80;99.90;;;;;;5013465;28;20422;-65
2022/11/03 06:57:18;;;;;;;7.03;3.30;;;3.90;99.90;;;;;;5013510;28;20418;-64
2022/11/03 06:59:44;;;;;;;6.87;3.00;;;4.00;99.90;;;;;;5013235;28;20417;-64
2022/11/03 07:02:37;;;;;;;3.50;2.33;;;4.00;99.90;;;;;;5013217;28;20765;-64
2022/11/03 07:05:15;;;;;;;5.30;3.17;;;4.10;99.90;;;;;;5013048;28;20434;-65
2022/11/03 07:07:41;;;;;;;6.27;3.00;;;4.20;99.90;;;;;;5004103;28;20465;-65
2022/11/03 07:10:07;;;;;;;6.97;3.03;;;4.30;99.90;;;;;;4992772;28;20454;-65
2022/11/03 07:12:33;;;;;;;8.03;3.00;;;4.40;99.90;;;;;;5008229;28;20175;-65
2022/11/03 07:14:59;;;;;;;6.00;3.40;;;4.50;99.90;;;;;;5009359;28;20422;-65
2022/11/03 07:17:25;;;;;;;10.43;3.63;;;4.70;99.90;;;;;;4994461;28;20404;-65
2022/11/03 07:19:51;;;;;;;9.50;3.90;;;4.80;99.90;;;;;;5004033;28;20179;-64
2022/11/03 07:22:22;;;;;;;11.93;3.50;;;4.90;99.90;;;;;;5011954;28;20172;-65
2022/11/03 07:24:52;;;;;;;8.73;3.00;;;5.00;99.90;;;;;;5012735;28;20410;-64
2022/11/03 07:27:24;;;;;;;6.07;2.97;;;5.10;99.90;;;;;;5012517;28;20472;-64
2022/11/03 07:29:51;;;;;;;4.43;2.70;;;5.20;99.90;;;;;;5011658;28;20454;-64
2022/11/03 07:32:31;;;;;;;4.87;2.73;;;5.40;99.90;;;;;;5012364;28;20450;-65
2022/11/03 07:35:03;;;;;;;9.03;3.70;;;5.50;99.90;;;;;;5013110;28;20410;-65
2022/11/03 07:37:29;;;;;;;6.03;3.73;;;5.60;99.90;;;;;;5012989;28;20427;-65
2022/11/03 07:39:57;;;;;;;19.33;4.27;;;5.80;99.90;;;;;;5012849;28;20897;-66
2022/11/03 07:42:26;;;;;;;9.00;4.10;;;5.90;99.90;;;;;;5012152;28;20186;-65
2022/11/03 07:44:54;;;;;;;14.70;4.00;;;6.10;99.90;;;;;;5012196;28;20417;-65
2022/11/03 07:47:25;;;;;;;7.63;3.70;;;6.30;99.90;;;;;;5012581;28;20410;-65
2022/11/03 07:49:52;;;;;;;10.20;3.53;;;6.40;99.90;;;;;;5012711;28;20549;-65
2022/11/03 07:52:22;;;;;;;13.10;3.50;;;6.60;99.90;;;;;;5003963;28;20418;-65
2022/11/03 07:54:51;;;;;;;10.33;3.10;;;6.80;99.90;;;;;;4993282;28;20434;-65
2022/11/03 07:57:29;;;;;;;10.10;3.83;;;6.90;99.90;;;;;;4993185;28;20411;-65
2022/11/03 08:00:04;;;;;;;6.63;2.73;;;7.10;99.90;;;;;;4993107;28;20450;-65
2022/11/03 08:02:32;;;;;;;8.07;3.20;;;7.40;99.90;;;;;;4992550;28;20415;-65
2022/11/03 08:04:58;;;;;;;5.77;2.90;;;7.50;99.90;;;;;;4992858;28;20431;-65
2022/11/03 08:07:24;;;;;;;3.07;2.37;;;7.60;99.90;;;;;;4992819;28;20891;-65
2022/11/03 08:09:50;;;;;;;9.30;3.03;;;7.70;99.90;;;;;;4992661;28;20461;-65
2022/11/03 08:12:16;;;;;;;7.87;3.07;;;7.80;99.90;;;;;;5000301;28;20195;-65
2022/11/03 08:14:41;;;;;;;3.60;2.33;;;7.90;99.90;;;;;;5012077;28;20410;-65
2022/11/03 08:17:07;;;;;;;5.17;1.87;;;8.00;99.90;;;;;;5012364;28;20203;-65
2022/11/03 08:19:33;;;;;;;3.43;1.63;;;8.00;99.90;;;;;;5008908;28;20176;-65
2022/11/03 08:21:58;;;;;;;6.93;2.37;;;8.10;99.90;;;;;;4991155;28;20656;-65
2022/11/03 08:24:24;;;;;;;3.50;1.40;;;8.20;99.90;;;;;;4992587;28;20183;-65
2022/11/03 08:26:49;;;;;;;8.23;3.43;;;8.20;99.90;;;;;;4992558;28;20238;-65
2022/11/03 08:29:16;;;;;;;5.20;2.20;;;8.30;99.90;;;;;;4992369;28;20210;-65
2022/11/03 08:31:42;;;;;;;4.83;1.97;;;8.40;99.90;;;;;;4990872;28;20176;-65
2022/11/03 08:34:08;;;;;;;3.30;1.90;;;8.40;99.90;;;;;;4991847;28;20421;-65
2022/11/03 08:36:34;;;;;;;10.00;2.53;;;8.50;99.90;;;;;;4991333;28;20411;-65
2022/11/03 08:38:59;;;;;;;5.07;2.20;;;8.50;99.90;;;;;;4991727;28;20628;-65
2022/11/03 08:41:25;;;;;;;6.80;2.53;;;8.50;99.90;;;;;;4992879;28;20617;-65
2022/11/03 08:43:50;;;;;;;18.43;1.70;;;8.70;99.90;;;;;;5011040;28;20213;-65
2022/11/03 08:46:16;;;;;;;4.30;1.77;;;8.70;99.90;;;;;;5011464;28;20175;-65
2022/11/03 08:48:42;;;;;;;2.33;1.30;;;8.90;99.90;;;;;;5011279;28;20754;-65
2022/11/03 08:51:09;;;;;;;2.60;1.47;;;8.90;99.90;;;;;;5011200;28;20738;-65
2022/11/03 08:53:35;;;;;;;3.70;1.47;;;9.00;99.90;;;;;;5010752;28;20636;-65
2022/11/03 08:56:00;;;;;;;5.00;2.23;;;9.10;99.90;;;;;;5011324;28;20732;-65
2022/11/03 08:58:26;;;;;;;9.90;2.20;;;9.10;99.90;;;;;;5010678;28;20465;-65
2022/11/03 09:00:51;;;;;;;4.17;1.80;;;9.20;99.90;;;;;;5011393;28;20175;-65
2022/11/03 09:03:17;;;;;;;2.70;1.47;;;9.20;99.90;;;;;;5010833;28;20183;-65
2022/11/03 09:05:43;;;;;;;8.77;2.33;;;9.20;99.90;;;;;;5011178;28;20314;-65
2022/11/03 09:08:08;;;;;;;2.40;1.63;;;9.20;99.90;;;;;;5007313;28;20179;-65
2022/11/03 09:10:34;;;;;;;2.80;1.07;;;9.20;99.90;;;;;;5004667;28;20238;-65
2022/11/03 09:12:59;;;;;;;9.30;2.10;;;9.40;99.90;;;;;;5008229;28;20179;-65
2022/11/03 09:15:25;;;;;;;5.80;2.13;;;9.40;99.90;;;;;;5005298;28;20190;-65
2022/11/03 09:17:51;;;;;;;3.93;1.87;;;9.50;99.90;;;;;;4998574;28;20184;-65
2022/11/03 09:20:16;;;;;;;6.50;1.50;;;9.60;99.90;;;;;;4994286;28;20562;-65
2022/11/03 09:22:42;;;;;;;4.10;1.63;;;9.60;99.90;;;;;;4989677;28;20691;-65
2022/11/03 09:25:08;;;;;;;5.70;2.07;;;9.80;99.90;;;;;;4989666;28;20232;-65
2022/11/03 09:27:34;;;;;;;3.57;2.10;;;9.70;99.90;;;;;;5003351;28;20429;-65
2022/11/03 09:30:00;;;;;;;3.70;1.87;;;9.90;99.90;;;;;;5009430;28;20450;-65
2022/11/03 09:32:25;;;;;;;5.03;3.13;;;9.90;99.90;;;;;;5009162;28;20167;-65
2022/11/03 09:34:51;;;;;;;12.23;3.43;;;9.90;99.90;;;;;;5009598;28;20175;-65
2022/11/03 09:37:17;;;;;;;3.97;2.10;;;10.00;99.90;;;;;;5009989;28;20251;-64
2022/11/03 09:39:42;;;;;;;3.50;1.97;;;10.00;99.90;;;;;;5009890;28;20565;-64
2022/11/03 09:42:11;;;;;;;6.63;3.07;;;10.10;99.90;;;;;;5009435;28;20183;-65
2022/11/03 09:44:37;;;;;;;4.70;2.10;;;10.10;99.90;;;;;;5009496;28;20301;-64
2022/11/03 09:47:04;;;;;;;5.10;2.43;;;10.20;99.90;;;;;;5008778;28;20426;-65
2022/11/03 09:49:32;;;;;;;7.27;2.57;;;10.20;99.90;;;;;;4999778;28;20958;-65
2022/11/03 09:52:02;;;;;;;4.03;2.00;;;10.20;99.90;;;;;;4993598;28;20414;-65
2022/11/03 09:54:28;;;;;;;6.10;3.23;;;10.20;99.90;;;;;;4993543;28;20519;-65
2022/11/03 09:56:57;;;;;;;4.43;2.67;;;10.30;99.90;;;;;;4993940;28;20407;-65
2022/11/03 09:59:23;;;;;;;4.37;2.27;;;10.20;99.90;;;;;;4993060;28;20424;-65
2022/11/03 10:01:52;;;;;;;4.53;2.30;;;10.30;99.90;;;;;;4993475;28;20489;-65
2022/11/03 10:04:35;;;;;;;5.20;2.33;;;10.30;99.90;;;;;;5008715;28;20418;-65
2022/11/03 10:07:01;;;;;;;7.40;2.93;;;10.20;99.90;;;;;;5013371;28;20410;-65
2022/11/03 10:09:28;;;;;;;8.53;2.40;;;10.20;99.90;;;;;;5013090;28;20942;-65
2022/11/03 10:11:54;;;;;;;6.03;3.30;;;10.20;99.90;;;;;;5012532;28;20190;-65
2022/11/03 10:14:21;;;;;;;5.83;1.90;;;10.20;99.90;;;;;;5012828;28;20406;-65
2022/11/03 10:16:59;;;;;;;12.63;2.40;;;10.20;99.90;;;;;;5013242;28;20406;-65
2022/11/03 10:19:25;;;;;;;6.87;3.50;;;10.20;99.90;;;;;;5011043;28;20945;-65
2022/11/03 10:21:51;;;;;;;4.07;2.30;;;10.20;99.90;;;;;;4991802;28;20418;-65
2022/11/03 10:24:17;;;;;;;3.47;2.43;;;10.20;99.90;;;;;;4993517;28;20403;-66
2022/11/03 10:26:49;;;;;;;6.63;2.80;;;10.20;99.90;;;;;;4993537;28;20636;-65
2022/11/03 10:29:33;;;;;;;8.07;3.80;;;10.30;99.90;;;;;;4993072;28;20255;-66
2022/11/03 10:31:59;;;;;;;7.03;3.20;;;10.20;99.90;;;;;;4993202;28;20783;-65
2022/11/03 10:34:35;;;;;;;6.37;2.47;;;10.20;99.90;;;;;;4993338;28;20422;-66
2022/11/03 10:37:16;;;;;;;6.73;2.80;;;10.30;99.90;;;;;;4993244;28;20206;-66
2022/11/03 10:39:42;;;;;;;8.03;3.30;;;10.40;99.90;;;;;;4993376;28;20427;-64
2022/11/03 10:42:22;;;;;;;6.03;2.77;;;10.50;99.90;;;;;;4999828;28;20762;-64
2022/11/03 10:45:07;;;;;;;5.60;3.03;;;10.70;99.90;;;;;;5012112;28;20397;-64
2022/11/03 10:47:34;;;;;;;12.60;2.40;;;10.80;99.90;;;;;;5012727;28;20414;-64
2022/11/03 10:50:24;;;;;;;3.90;2.27;;;11.00;99.90;;;;;;5012641;28;20773;-64
2022/11/03 10:52:50;;;;;;;7.10;3.00;;;11.30;99.90;;;;;;5012019;28;20406;-64
2022/11/03 10:55:18;;;;;;;5.83;2.23;;;11.50;99.90;;;;;;5012353;28;20437;-64
2022/11/03 10:57:44;;;;;;;5.87;2.70;;;11.60;99.90;;;;;;5012504;28;20749;-66
2022/11/03 11:00:17;;;;;;;6.03;2.33;;;11.60;99.90;;;;;;5011898;28;20934;-66
2022/11/03 11:02:45;;;;;;;2.97;2.10;;;11.70;99.90;;;;;;5011796;28;20849;-66
2022/11/03 11:05:21;;;;;;;4.50;2.43;;;11.70;99.90;;;;;;5012496;28;20418;-66
2022/11/03 11:07:50;;;;;;;5.00;1.80;;;11.70;99.90;;;;;;5012006;28;20418;-66
2022/11/03 11:10:19;;;;;;;3.43;1.73;;;11.70;99.90;;;;;;5011452;28;20453;-66
2022/11/03 11:13:05;;;;;;;4.03;2.17;;;11.70;99.90;;;;;;5011406;28;20414;-66
2022/11/03 11:15:38;;;;;;;2.60;1.67;;;11.80;99.90;;;;;;5011584;28;20475;-66
2022/11/03 11:18:04;;;;;;;3.90;2.00;;;11.80;99.90;;;;;;5011530;28;20842;-66
2022/11/03 11:20:41;;;;;;;1.93;1.17;;;11.90;99.90;;;;;;5003060;28;20426;-66
2022/11/03 11:23:25;;;;;;;4.60;1.57;;;12.00;99.90;;;;;;5011169;28;20586;-66
2022/11/03 11:26:09;;;;;;;3.10;1.23;;;12.10;99.90;;;;;;5011698;28;20473;-66
2022/11/03 11:28:36;;;;;;;4.53;1.77;;;12.30;99.90;;;;;;5011486;28;20425;-66
2022/11/03 11:31:31;;;;;;;3.93;1.50;;;12.40;99.90;;;;;;5011569;28;20946;-66
2022/11/03 11:34:20;;;;;;;3.37;1.50;;;12.40;99.90;;;;;;5011744;28;20730;-66
2022/11/03 11:37:06;;;;;;;4.43;1.70;;;12.50;99.90;;;;;;5002700;28;20422;-66
2022/11/03 11:39:33;;;;;;;3.00;1.57;;;12.70;99.90;;;;;;5011505;28;20450;-66
2022/11/03 11:42:16;;;;;;;6.63;2.00;;;12.70;99.90;;;;;;5011102;28;20418;-66
2022/11/03 11:44:41;;;;;;;4.27;2.17;;;12.70;99.90;;;;;;5011025;28;20399;-66
2022/11/03 11:47:29;;;;;;;1.67;0.93;;;12.80;99.90;;;;;;5011444;28;20469;-66
2022/11/03 11:50:09;;;;;;;2.73;1.50;;;12.80;99.90;;;;;;5011559;28;20245;-66
2022/11/03 11:52:41;;;;;;;4.40;2.00;;;12.80;99.90;;;;;;5011180;28;20509;-66
2022/11/03 11:55:17;;;;;;;4.90;2.10;;;12.80;99.90;;;;;;5011152;28;20410;-66
2022/11/03 11:57:44;;;;;;;2.63;1.43;;;12.90;99.90;;;;;;5011151;28;20386;-66
2022/11/03 12:00:25;;;;;;;3.83;1.17;;;12.90;99.90;;;;;;5010651;28;20461;-66
2022/11/03 12:02:52;;;;;;;2.57;1.50;;;12.80;99.90;;;;;;5010716;28;20498;-66
2022/11/03 12:05:26;;;;;;;2.80;1.43;;;12.90;99.90;;;;;;5011138;28;20442;-66
2022/11/03 12:07:52;;;;;;;3.70;2.13;;;12.80;99.90;;;;;;5010923;28;20416;-66
2022/11/03 12:10:25;;;;;;;5.47;2.43;;;12.90;99.90;;;;;;5004496;28;20546;-66
2022/11/03 12:12:51;;;;;;;5.40;3.13;;;12.80;99.90;;;;;;5004787;28;20413;-67
2022/11/03 12:15:51;;;;;;;3.00;1.80;;;12.80;99.90;;;;;;5012155;28;20467;-64
2022/11/03 12:18:38;;;;;;;4.23;1.50;;;12.80;99.90;;;;;;5012140;28;20922;-64
2022/11/03 12:21:13;;;;;;;2.73;1.40;;;12.70;99.90;;;;;;4996180;28;20533;-64
2022/11/03 12:23:40;;;;;;;2.80;1.63;;;12.60;99.90;;;;;;4992447;28;20410;-64
2022/11/03 12:26:28;;;;;;;2.20;1.20;;;12.60;99.90;;;;;;4992603;28;20817;-64
2022/11/03 12:28:54;;;;;;;4.73;2.00;;;12.60;99.90;;;;;;4992255;28;20419;-66
2022/11/03 12:31:19;;;;;;;4.33;1.53;;;12.60;99.90;;;;;;4992523;28;20454;-66
2022/11/03 12:33:45;;;;;;;4.17;1.53;;;12.60;99.90;;;;;;4992553;28;20232;-66
2022/11/03 12:36:11;;;;;;;8.40;2.37;;;12.60;99.90;;;;;;4992675;28;20186;-66
2022/11/03 12:38:36;;;;;;;4.03;1.80;;;12.60;99.90;;;;;;4992691;28;20176;-66
2022/11/03 12:41:20;;;;;;;2.70;1.40;;;12.60;99.90;;;;;;4992711;28;20215;-66
2022/11/03 12:43:50;;;;;;;4.03;1.50;;;12.60;99.90;;;;;;4991972;28;20347;-66
2022/11/03 12:46:17;;;;;;;2.37;1.63;;;12.60;99.90;;;;;;4992442;28;20510;-66
2022/11/03 12:48:43;;;;;;;2.93;1.80;;;12.60;99.90;;;;;;4992343;28;20418;-66
2022/11/03 12:51:16;;;;;;;6.90;2.03;;;12.50;99.90;;;;;;4992147;28;20807;-66
2022/11/03 12:53:42;;;;;;;4.03;1.53;;;12.50;99.90;;;;;;4991801;28;20530;-66
2022/11/03 12:56:09;;;;;;;5.87;2.10;;;12.50;99.90;;;;;;4992212;28;20502;-66
2022/11/03 12:58:34;;;;;;;6.57;2.10;;;12.50;99.90;;;;;;4991901;28;20470;-65
2022/11/03 13:01:00;;;;;;;8.23;2.73;;;12.60;99.90;;;;;;4992474;28;20825;-67
2022/11/03 13:03:26;;;;;;;4.40;1.70;;;12.50;99.90;;;;;;4996746;28;20179;-66
2022/11/03 13:05:52;;;;;;;8.70;2.47;;;12.50;99.90;;;;;;5000902;28;20230;-66
2022/11/03 13:08:17;;;;;;;3.17;1.80;;;12.50;99.90;;;;;;5008979;28;20787;-66
2022/11/03 13:10:43;;;;;;;4.20;1.57;;;12.50;99.90;;;;;;5009863;28;20210;-66
2022/11/03 13:13:09;;;;;;;4.80;1.80;;;12.60;99.90;;;;;;5006826;28;20186;-67
2022/11/03 13:15:35;;;;;;;3.07;1.30;;;12.60;99.90;;;;;;5011553;28;20176;-66
2022/11/03 13:18:01;;;;;;;3.30;0.93;;;12.60;99.90;;;;;;5011730;28;20535;-66
2022/11/03 13:20:26;;;;;;;7.70;2.63;;;12.60;99.90;;;;;;5001103;28;20423;-65
2022/11/03 13:22:52;;;;;;;3.23;1.57;;;12.70;99.90;;;;;;4992045;28;20188;-65
2022/11/03 13:25:18;;;;;;;2.80;1.30;;;12.70;99.90;;;;;;4995824;28;20218;-65
2022/11/03 13:27:44;;;;;;;7.87;3.13;;;12.70;99.90;;;;;;4996287;28;20649;-65
2022/11/03 13:30:10;;;;;;;11.67;3.60;;;12.70;99.90;;;;;;4995887;28;20200;-65